Terminal Aerodrome Forecast
Issued by NWS

Home | Current Version | Previous Version | Text Only | Print | Product List | Glossary On
Versions: 1 2 3 4 5 6 7 8 9 10 11 12
190
FTUS44 KBMX 170539
TAFTOI
TAF
KTOI 170539Z 1706/1806 11003KT P6SM SCT150 BKN250
     FM171530 17004KT P6SM OVC040
     FM172000 16006KT 4SM -RA BR OVC025
     FM172200 15006KT 4SM -RA BR OVC015
     FM180400 17004KT 5SM BR OVC007=

USA.gov is the U.S. government's official web portal to all federal, state and local government web resources and services.